sensor_id;sensor_type;location;lat;lon;timestamp;temperature;humidity
13794;DHT22;31160;49.500;7.772;2023-09-30T00:01:09;16.60;99.90
13794;DHT22;31160;49.500;7.772;2023-09-30T00:03:36;16.50;99.90
13794;DHT22;31160;49.500;7.772;2023-09-30T00:06:04;16.50;99.90
13794;DHT22;31160;49.500;7.772;2023-09-30T00:08:30;16.40;99.90
13794;DHT22;31160;49.500;7.772;2023-09-30T00:10:57;16.50;99.90
13794;DHT22;31160;49.500;7.772;2023-09-30T00:13:24;16.40;99.90
13794;DHT22;31160;49.500;7.772;2023-09-30T00:15:51;16.40;99.90
13794;DHT22;31160;49.500;7.772;2023-09-30T00:18:18;16.40;99.90
13794;DHT22;31160;49.500;7.772;2023-09-30T00:20:45;16.30;99.90
13794;DHT22;31160;49.500;7.772;2023-09-30T00:23:13;16.40;99.90
13794;DHT22;31160;49.500;7.772;2023-09-30T00:25:41;16.40;99.90
13794;DHT22;31160;49.500;7.772;2023-09-30T00:28:08;16.50;99.90
13794;DHT22;31160;49.500;7.772;2023-09-30T00:30:35;16.40;99.90
13794;DHT22;31160;49.500;7.772;2023-09-30T00:33:02;16.40;99.90
13794;DHT22;31160;49.500;7.772;2023-09-30T00:35:35;16.40;99.90
13794;DHT22;31160;49.500;7.772;2023-09-30T00:38:02;16.40;99.90
13794;DHT22;31160;49.500;7.772;2023-09-30T00:40:30;16.40;99.90
13794;DHT22;31160;49.500;7.772;2023-09-30T00:42:58;16.40;99.90
13794;DHT22;31160;49.500;7.772;2023-09-30T00:45:25;16.30;99.90
13794;DHT22;31160;49.500;7.772;2023-09-30T00:47:52;16.40;99.90
13794;DHT22;31160;49.500;7.772;2023-09-30T00:50:21;16.40;99.90
13794;DHT22;31160;49.500;7.772;2023-09-30T00:52:49;16.40;99.90
13794;DHT22;31160;49.500;7.772;2023-09-30T00:55:17;16.40;99.90
13794;DHT22;31160;49.500;7.772;2023-09-30T00:57:46;16.30;99.90
13794;DHT22;31160;49.500;7.772;2023-09-30T01:00:14;16.30;99.90
13794;DHT22;31160;49.500;7.772;2023-09-30T01:02:43;16.20;99.90
13794;DHT22;31160;49.500;7.772;2023-09-30T01:05:11;16.20;99.90
13794;DHT22;31160;49.500;7.772;2023-09-30T01:07:38;16.00;99.90
13794;DHT22;31160;49.500;7.772;2023-09-30T01:10:06;15.90;99.90
13794;DHT22;31160;49.500;7.772;2023-09-30T01:12:35;15.90;99.90
13794;DHT22;31160;49.500;7.772;2023-09-30T01:15:03;15.90;99.90
13794;DHT22;31160;49.500;7.772;2023-09-30T01:17:35;15.80;99.90
13794;DHT22;31160;49.500;7.772;2023-09-30T01:20:04;15.70;99.90
13794;DHT22;31160;49.500;7.772;2023-09-30T01:22:33;15.60;99.90
13794;DHT22;31160;49.500;7.772;2023-09-30T01:25:01;15.60;99.90
13794;DHT22;31160;49.500;7.772;2023-09-30T01:27:29;15.50;99.90
13794;DHT22;31160;49.500;7.772;2023-09-30T01:29:57;15.50;99.90
13794;DHT22;31160;49.500;7.772;2023-09-30T01:32:25;15.40;99.90
13794;DHT22;31160;49.500;7.772;2023-09-30T01:34:53;15.40;99.90
13794;DHT22;31160;49.500;7.772;2023-09-30T01:37:20;15.30;99.90
13794;DHT22;31160;49.500;7.772;2023-09-30T01:39:47;15.20;99.90
13794;DHT22;31160;49.500;7.772;2023-09-30T01:42:17;15.20;99.90
13794;DHT22;31160;49.500;7.772;2023-09-30T01:44:45;15.20;99.90
13794;DHT22;31160;49.500;7.772;2023-09-30T01:47:11;15.20;99.90
13794;DHT22;31160;49.500;7.772;2023-09-30T01:49:38;15.20;99.90
13794;DHT22;31160;49.500;7.772;2023-09-30T01:52:05;15.10;99.90
13794;DHT22;31160;49.500;7.772;2023-09-30T01:54:32;15.10;99.90
13794;DHT22;31160;49.500;7.772;2023-09-30T01:56:59;15.20;99.90
13794;DHT22;31160;49.500;7.772;2023-09-30T01:59:26;15.20;99.90
13794;DHT22;31160;49.500;7.772;2023-09-30T02:01:53;15.10;99.90
13794;DHT22;31160;49.500;7.772;2023-09-30T02:04:20;15.20;99.90
13794;DHT22;31160;49.500;7.772;2023-09-30T02:06:48;15.20;99.90
13794;DHT22;31160;49.500;7.772;2023-09-30T02:09:16;15.20;99.90
13794;DHT22;31160;49.500;7.772;2023-09-30T02:11:43;15.10;99.90
13794;DHT22;31160;49.500;7.772;2023-09-30T02:14:10;15.10;99.90
13794;DHT22;31160;49.500;7.772;2023-09-30T02:16:39;15.10;99.90
13794;DHT22;31160;49.500;7.772;2023-09-30T02:19:06;15.10;99.90
13794;DHT22;31160;49.500;7.772;2023-09-30T02:21:33;14.90;99.90
13794;DHT22;31160;49.500;7.772;2023-09-30T02:24:00;14.90;99.90
13794;DHT22;31160;49.500;7.772;2023-09-30T02:26:26;15.00;99.90
13794;DHT22;31160;49.500;7.772;2023-09-30T02:28:55;15.00;99.90
13794;DHT22;31160;49.500;7.772;2023-09-30T02:31:23;15.00;99.90
13794;DHT22;31160;49.500;7.772;2023-09-30T02:33:50;15.00;99.90
13794;DHT22;31160;49.500;7.772;2023-09-30T02:36:17;15.00;99.90
13794;DHT22;31160;49.500;7.772;2023-09-30T02:38:44;15.00;99.90
13794;DHT22;31160;49.500;7.772;2023-09-30T02:41:12;15.00;99.90
13794;DHT22;31160;49.500;7.772;2023-09-30T02:43:39;15.00;99.90
13794;DHT22;31160;49.500;7.772;2023-09-30T02:46:07;15.10;99.90
13794;DHT22;31160;49.500;7.772;2023-09-30T02:48:35;15.10;99.90
13794;DHT22;31160;49.500;7.772;2023-09-30T02:51:02;15.00;99.90
13794;DHT22;31160;49.500;7.772;2023-09-30T02:53:28;15.00;99.90
13794;DHT22;31160;49.500;7.772;2023-09-30T02:55:55;15.00;99.90
13794;DHT22;31160;49.500;7.772;2023-09-30T02:58:26;14.90;99.90
13794;DHT22;31160;49.500;7.772;2023-09-30T03:00:53;14.90;99.90
13794;DHT22;31160;49.500;7.772;2023-09-30T03:03:21;15.00;99.90
13794;DHT22;31160;49.500;7.772;2023-09-30T03:05:48;14.90;99.90
13794;DHT22;31160;49.500;7.772;2023-09-30T03:08:16;14.90;99.90
13794;DHT22;31160;49.500;7.772;2023-09-30T03:10:43;14.90;99.90
13794;DHT22;31160;49.500;7.772;2023-09-30T03:13:10;14.90;99.90
13794;DHT22;31160;49.500;7.772;2023-09-30T03:15:36;14.90;99.90
13794;DHT22;31160;49.500;7.772;2023-09-30T03:18:04;14.70;99.90
13794;DHT22;31160;49.500;7.772;2023-09-30T03:20:31;14.80;99.90
13794;DHT22;31160;49.500;7.772;2023-09-30T03:22:58;14.80;99.90
13794;DHT22;31160;49.500;7.772;2023-09-30T03:25:26;14.80;99.90
13794;DHT22;31160;49.500;7.772;2023-09-30T03:27:53;14.80;99.90
13794;DHT22;31160;49.500;7.772;2023-09-30T03:30:20;14.70;99.90
13794;DHT22;31160;49.500;7.772;2023-09-30T03:32:47;14.70;99.90
13794;DHT22;31160;49.500;7.772;2023-09-30T03:35:14;14.70;99.90
13794;DHT22;31160;49.500;7.772;2023-09-30T03:37:46;14.70;99.90
13794;DHT22;31160;49.500;7.772;2023-09-30T03:40:14;14.70;99.90
13794;DHT22;31160;49.500;7.772;2023-09-30T03:42:41;14.60;99.90
13794;DHT22;31160;49.500;7.772;2023-09-30T03:45:12;14.50;99.90
13794;DHT22;31160;49.500;7.772;2023-09-30T03:47:41;14.50;99.90
13794;DHT22;31160;49.500;7.772;2023-09-30T03:50:08;14.40;99.90
13794;DHT22;31160;49.500;7.772;2023-09-30T03:52:43;14.40;99.90
13794;DHT22;31160;49.500;7.772;2023-09-30T03:55:13;14.40;99.90
13794;DHT22;31160;49.500;7.772;2023-09-30T03:57:42;14.40;99.90
13794;DHT22;31160;49.500;7.772;2023-09-30T04:00:09;14.40;99.90
13794;DHT22;31160;49.500;7.772;2023-09-30T04:02:46;14.40;99.90
13794;DHT22;31160;49.500;7.772;2023-09-30T04:05:16;14.30;99.90
13794;DHT22;31160;49.500;7.772;2023-09-30T04:07:43;14.30;99.90
13794;DHT22;31160;49.500;7.772;2023-09-30T04:10:10;14.20;99.90
13794;DHT22;31160;49.500;7.772;2023-09-30T04:12:37;14.20;99.90
13794;DHT22;31160;49.500;7.772;2023-09-30T04:15:04;14.20;99.90
13794;DHT22;31160;49.500;7.772;2023-09-30T04:17:31;14.10;99.90
13794;DHT22;31160;49.500;7.772;2023-09-30T04:19:59;14.00;99.90
13794;DHT22;31160;49.500;7.772;2023-09-30T04:22:26;14.00;99.90
13794;DHT22;31160;49.500;7.772;2023-09-30T04:24:56;14.00;99.90
13794;DHT22;31160;49.500;7.772;2023-09-30T04:27:23;14.10;99.90
13794;DHT22;31160;49.500;7.772;2023-09-30T04:29:50;14.10;99.90
13794;DHT22;31160;49.500;7.772;2023-09-30T04:32:17;14.10;99.90
13794;DHT22;31160;49.500;7.772;2023-09-30T04:34:43;14.20;99.90
13794;DHT22;31160;49.500;7.772;2023-09-30T04:37:13;14.30;99.90
13794;DHT22;31160;49.500;7.772;2023-09-30T04:39:40;14.30;99.90
13794;DHT22;31160;49.500;7.772;2023-09-30T04:42:07;14.30;99.90
13794;DHT22;31160;49.500;7.772;2023-09-30T04:44:38;14.30;99.90
13794;DHT22;31160;49.500;7.772;2023-09-30T04:47:05;14.30;99.90
13794;DHT22;31160;49.500;7.772;2023-09-30T04:49:32;14.30;99.90
13794;DHT22;31160;49.500;7.772;2023-09-30T04:51:58;14.20;99.90
13794;DHT22;31160;49.500;7.772;2023-09-30T04:54:25;14.20;99.90
13794;DHT22;31160;49.500;7.772;2023-09-30T04:56:52;14.20;99.90
13794;DHT22;31160;49.500;7.772;2023-09-30T04:59:19;14.00;99.90
13794;DHT22;31160;49.500;7.772;2023-09-30T05:01:45;14.00;99.90
13794;DHT22;31160;49.500;7.772;2023-09-30T05:04:12;13.90;99.90
13794;DHT22;31160;49.500;7.772;2023-09-30T05:06:39;13.90;99.90
13794;DHT22;31160;49.500;7.772;2023-09-30T05:09:06;14.00;99.90
13794;DHT22;31160;49.500;7.772;2023-09-30T05:11:33;14.10;99.90
13794;DHT22;31160;49.500;7.772;2023-09-30T05:14:01;14.10;99.90
13794;DHT22;31160;49.500;7.772;2023-09-30T05:16:31;14.20;99.90
13794;DHT22;31160;49.500;7.772;2023-09-30T05:18:58;14.20;99.90
13794;DHT22;31160;49.500;7.772;2023-09-30T05:21:25;14.10;99.90
13794;DHT22;31160;49.500;7.772;2023-09-30T05:23:53;14.10;99.90
13794;DHT22;31160;49.500;7.772;2023-09-30T05:26:20;14.10;99.90
13794;DHT22;31160;49.500;7.772;2023-09-30T05:28:47;14.10;99.90
13794;DHT22;31160;49.500;7.772;2023-09-30T05:31:13;14.20;99.90
13794;DHT22;31160;49.500;7.772;2023-09-30T05:33:40;14.20;99.90
13794;DHT22;31160;49.500;7.772;2023-09-30T05:36:07;14.30;99.90
13794;DHT22;31160;49.500;7.772;2023-09-30T05:38:34;14.30;99.90
13794;DHT22;31160;49.500;7.772;2023-09-30T05:41:01;14.30;99.90
13794;DHT22;31160;49.500;7.772;2023-09-30T05:43:28;14.30;99.90
13794;DHT22;31160;49.500;7.772;2023-09-30T05:45:56;14.30;99.90
13794;DHT22;31160;49.500;7.772;2023-09-30T05:48:27;14.30;99.90
13794;DHT22;31160;49.500;7.772;2023-09-30T05:50:54;14.30;99.90
13794;DHT22;31160;49.500;7.772;2023-09-30T05:53:21;14.40;99.90
13794;DHT22;31160;49.500;7.772;2023-09-30T05:55:47;14.30;99.90
13794;DHT22;31160;49.500;7.772;2023-09-30T05:58:15;14.40;99.90
13794;DHT22;31160;49.500;7.772;2023-09-30T06:00:43;14.50;99.90
13794;DHT22;31160;49.500;7.772;2023-09-30T06:03:10;14.50;99.90
13794;DHT22;31160;49.500;7.772;2023-09-30T06:05:41;14.50;99.90
13794;DHT22;31160;49.500;7.772;2023-09-30T06:08:09;14.60;99.90
13794;DHT22;31160;49.500;7.772;2023-09-30T06:10:43;14.50;99.90
13794;DHT22;31160;49.500;7.772;2023-09-30T06:13:11;14.50;99.90
13794;DHT22;31160;49.500;7.772;2023-09-30T06:15:41;14.50;99.90
13794;DHT22;31160;49.500;7.772;2023-09-30T06:18:10;14.50;99.90
13794;DHT22;31160;49.500;7.772;2023-09-30T06:20:40;14.60;99.90
13794;DHT22;31160;49.500;7.772;2023-09-30T06:23:07;14.60;99.90
13794;DHT22;31160;49.500;7.772;2023-09-30T06:25:34;14.50;99.90
13794;DHT22;31160;49.500;7.772;2023-09-30T06:28:02;14.60;99.90
13794;DHT22;31160;49.500;7.772;2023-09-30T06:30:30;14.50;99.90
13794;DHT22;31160;49.500;7.772;2023-09-30T06:32:59;14.50;99.90
13794;DHT22;31160;49.500;7.772;2023-09-30T06:35:28;14.60;99.90
13794;DHT22;31160;49.500;7.772;2023-09-30T06:37:57;14.70;99.90
13794;DHT22;31160;49.500;7.772;2023-09-30T06:40:23;14.70;99.90
13794;DHT22;31160;49.500;7.772;2023-09-30T06:42:50;14.90;99.90
13794;DHT22;31160;49.500;7.772;2023-09-30T06:45:19;15.10;99.90
13794;DHT22;31160;49.500;7.772;2023-09-30T06:47:46;15.20;99.90
13794;DHT22;31160;49.500;7.772;2023-09-30T06:50:13;15.40;99.90
13794;DHT22;31160;49.500;7.772;2023-09-30T06:52:44;15.40;99.90
13794;DHT22;31160;49.500;7.772;2023-09-30T06:55:16;15.60;99.90
13794;DHT22;31160;49.500;7.772;2023-09-30T06:57:43;15.50;99.90
13794;DHT22;31160;49.500;7.772;2023-09-30T07:00:12;15.40;99.90
13794;DHT22;31160;49.500;7.772;2023-09-30T07:02:40;15.40;99.90
13794;DHT22;31160;49.500;7.772;2023-09-30T07:05:09;15.50;99.90
13794;DHT22;31160;49.500;7.772;2023-09-30T07:07:36;15.60;99.90
13794;DHT22;31160;49.500;7.772;2023-09-30T07:10:04;15.70;99.90
13794;DHT22;31160;49.500;7.772;2023-09-30T07:12:31;15.80;99.90
13794;DHT22;31160;49.500;7.772;2023-09-30T07:15:02;15.90;99.90
13794;DHT22;31160;49.500;7.772;2023-09-30T07:17:29;16.00;99.90
13794;DHT22;31160;49.500;7.772;2023-09-30T07:19:57;16.10;99.90
13794;DHT22;31160;49.500;7.772;2023-09-30T07:22:24;16.00;99.90
13794;DHT22;31160;49.500;7.772;2023-09-30T07:25:09;16.10;99.90
13794;DHT22;31160;49.500;7.772;2023-09-30T07:27:36;16.10;99.90
13794;DHT22;31160;49.500;7.772;2023-09-30T07:30:03;16.20;99.90
13794;DHT22;31160;49.500;7.772;2023-09-30T07:32:33;16.30;99.90
13794;DHT22;31160;49.500;7.772;2023-09-30T07:35:00;16.40;99.90
13794;DHT22;31160;49.500;7.772;2023-09-30T07:37:26;16.50;99.90
13794;DHT22;31160;49.500;7.772;2023-09-30T07:39:53;16.50;99.90
13794;DHT22;31160;49.500;7.772;2023-09-30T07:42:20;16.60;99.90
13794;DHT22;31160;49.500;7.772;2023-09-30T07:44:48;16.50;99.90
13794;DHT22;31160;49.500;7.772;2023-09-30T07:47:15;16.60;99.90
13794;DHT22;31160;49.500;7.772;2023-09-30T07:49:42;16.70;99.90
13794;DHT22;31160;49.500;7.772;2023-09-30T07:52:09;16.70;99.90
13794;DHT22;31160;49.500;7.772;2023-09-30T07:54:37;16.80;99.90
13794;DHT22;31160;49.500;7.772;2023-09-30T07:57:04;16.90;99.90
13794;DHT22;31160;49.500;7.772;2023-09-30T07:59:31;16.80;99.90
13794;DHT22;31160;49.500;7.772;2023-09-30T08:02:01;16.80;99.90
13794;DHT22;31160;49.500;7.772;2023-09-30T08:04:28;16.70;99.90
13794;DHT22;31160;49.500;7.772;2023-09-30T08:06:56;16.60;99.90
13794;DHT22;31160;49.500;7.772;2023-09-30T08:09:23;16.70;99.90
13794;DHT22;31160;49.500;7.772;2023-09-30T08:11:53;16.80;99.90
13794;DHT22;31160;49.500;7.772;2023-09-30T08:14:20;16.70;99.90
13794;DHT22;31160;49.500;7.772;2023-09-30T08:16:47;16.90;99.90
13794;DHT22;31160;49.500;7.772;2023-09-30T08:19:16;17.10;99.90
13794;DHT22;31160;49.500;7.772;2023-09-30T08:21:42;17.20;99.90
13794;DHT22;31160;49.500;7.772;2023-09-30T08:24:09;17.50;99.90
13794;DHT22;31160;49.500;7.772;2023-09-30T08:26:36;17.40;99.90
13794;DHT22;31160;49.500;7.772;2023-09-30T08:29:04;17.40;99.90
13794;DHT22;31160;49.500;7.772;2023-09-30T08:31:30;17.50;99.90
13794;DHT22;31160;49.500;7.772;2023-09-30T08:33:57;17.50;99.90
13794;DHT22;31160;49.500;7.772;2023-09-30T08:36:24;17.60;99.90
13794;DHT22;31160;49.500;7.772;2023-09-30T08:38:51;17.50;99.90
13794;DHT22;31160;49.500;7.772;2023-09-30T08:41:33;17.70;99.90
13794;DHT22;31160;49.500;7.772;2023-09-30T08:44:02;17.70;99.90
13794;DHT22;31160;49.500;7.772;2023-09-30T08:46:34;17.70;99.90
13794;DHT22;31160;49.500;7.772;2023-09-30T08:49:03;17.80;99.90
13794;DHT22;31160;49.500;7.772;2023-09-30T08:51:31;17.60;99.90
13794;DHT22;31160;49.500;7.772;2023-09-30T08:53:59;17.60;99.90
13794;DHT22;31160;49.500;7.772;2023-09-30T08:56:30;17.60;99.90
13794;DHT22;31160;49.500;7.772;2023-09-30T08:59:00;17.80;99.90
13794;DHT22;31160;49.500;7.772;2023-09-30T09:01:28;17.60;99.90
13794;DHT22;31160;49.500;7.772;2023-09-30T09:03:56;17.60;99.90
13794;DHT22;31160;49.500;7.772;2023-09-30T09:06:24;17.80;99.90
13794;DHT22;31160;49.500;7.772;2023-09-30T09:08:52;17.90;99.90
13794;DHT22;31160;49.500;7.772;2023-09-30T09:11:19;18.00;99.90
13794;DHT22;31160;49.500;7.772;2023-09-30T09:13:53;18.00;99.90
13794;DHT22;31160;49.500;7.772;2023-09-30T09:16:24;17.80;99.90
13794;DHT22;31160;49.500;7.772;2023-09-30T09:18:51;17.70;99.90
13794;DHT22;31160;49.500;7.772;2023-09-30T09:21:21;18.10;99.90
13794;DHT22;31160;49.500;7.772;2023-09-30T09:23:51;18.30;99.90
13794;DHT22;31160;49.500;7.772;2023-09-30T09:26:31;18.20;99.90
13794;DHT22;31160;49.500;7.772;2023-09-30T09:29:04;18.10;99.90
13794;DHT22;31160;49.500;7.772;2023-09-30T09:31:32;18.60;99.90
13794;DHT22;31160;49.500;7.772;2023-09-30T09:34:02;18.90;99.90
13794;DHT22;31160;49.500;7.772;2023-09-30T09:36:43;18.90;99.90
13794;DHT22;31160;49.500;7.772;2023-09-30T09:39:10;19.10;99.90
13794;DHT22;31160;49.500;7.772;2023-09-30T09:42:00;18.80;99.90
13794;DHT22;31160;49.500;7.772;2023-09-30T09:44:29;19.00;99.90
13794;DHT22;31160;49.500;7.772;2023-09-30T09:46:57;19.20;99.90
13794;DHT22;31160;49.500;7.772;2023-09-30T09:49:25;19.20;99.90
13794;DHT22;31160;49.500;7.772;2023-09-30T09:51:52;19.50;99.90
13794;DHT22;31160;49.500;7.772;2023-09-30T09:54:21;19.60;99.90
13794;DHT22;31160;49.500;7.772;2023-09-30T09:56:49;19.70;99.90
13794;DHT22;31160;49.500;7.772;2023-09-30T09:59:17;19.90;99.90
13794;DHT22;31160;49.500;7.772;2023-09-30T10:01:44;20.20;99.90
13794;DHT22;31160;49.500;7.772;2023-09-30T10:04:12;20.30;99.90
13794;DHT22;31160;49.500;7.772;2023-09-30T10:06:45;20.00;99.90
13794;DHT22;31160;49.500;7.772;2023-09-30T10:09:15;20.30;99.90
13794;DHT22;31160;49.500;7.772;2023-09-30T10:11:44;20.50;99.90
13794;DHT22;31160;49.500;7.772;2023-09-30T10:14:30;20.60;99.90
13794;DHT22;31160;49.500;7.772;2023-09-30T10:16:57;20.60;99.90
13794;DHT22;31160;49.500;7.772;2023-09-30T10:19:24;20.80;99.90
13794;DHT22;31160;49.500;7.772;2023-09-30T10:24:50;20.90;99.90
13794;DHT22;31160;49.500;7.772;2023-09-30T10:40:57;19.70;99.90
13794;DHT22;31160;49.500;7.772;2023-09-30T10:45:57;19.70;99.90
13794;DHT22;31160;49.500;7.772;2023-09-30T10:50:56;19.50;99.90
13794;DHT22;31160;49.500;7.772;2023-09-30T10:53:28;19.40;99.90
13794;DHT22;31160;49.500;7.772;2023-09-30T10:55:59;19.40;99.90
13794;DHT22;31160;49.500;7.772;2023-09-30T10:58:51;19.40;99.90
13794;DHT22;31160;49.500;7.772;2023-09-30T11:01:20;19.30;99.90
13794;DHT22;31160;49.500;7.772;2023-09-30T11:03:49;19.30;99.90
13794;DHT22;31160;49.500;7.772;2023-09-30T11:06:20;19.30;99.90
13794;DHT22;31160;49.500;7.772;2023-09-30T11:08:53;19.40;99.90
13794;DHT22;31160;49.500;7.772;2023-09-30T11:11:44;19.70;99.90
13794;DHT22;31160;49.500;7.772;2023-09-30T11:14:28;20.00;99.90
13794;DHT22;31160;49.500;7.772;2023-09-30T11:17:01;20.20;99.90
13794;DHT22;31160;49.500;7.772;2023-09-30T11:19:36;20.30;99.90
13794;DHT22;31160;49.500;7.772;2023-09-30T11:22:04;20.50;99.90
13794;DHT22;31160;49.500;7.772;2023-09-30T11:24:38;20.50;99.90
13794;DHT22;31160;49.500;7.772;2023-09-30T11:27:05;20.80;99.90
13794;DHT22;31160;49.500;7.772;2023-09-30T11:29:31;20.90;99.90
13794;DHT22;31160;49.500;7.772;2023-09-30T11:31:59;21.10;99.90
13794;DHT22;31160;49.500;7.772;2023-09-30T11:34:33;20.80;99.90
13794;DHT22;31160;49.500;7.772;2023-09-30T11:37:01;20.70;99.90
13794;DHT22;31160;49.500;7.772;2023-09-30T11:39:29;20.70;99.90
13794;DHT22;31160;49.500;7.772;2023-09-30T11:41:57;20.60;99.90
13794;DHT22;31160;49.500;7.772;2023-09-30T11:44:25;20.80;99.90
13794;DHT22;31160;49.500;7.772;2023-09-30T11:46:59;20.70;99.90
13794;DHT22;31160;49.500;7.772;2023-09-30T11:49:35;20.70;99.90
13794;DHT22;31160;49.500;7.772;2023-09-30T11:52:04;20.30;99.90
13794;DHT22;31160;49.500;7.772;2023-09-30T11:54:33;20.30;99.90
13794;DHT22;31160;49.500;7.772;2023-09-30T11:57:01;20.40;99.90
13794;DHT22;31160;49.500;7.772;2023-09-30T11:59:29;20.10;99.90
13794;DHT22;31160;49.500;7.772;2023-09-30T12:01:56;20.00;99.90
13794;DHT22;31160;49.500;7.772;2023-09-30T12:04:39;20.00;99.90
13794;DHT22;31160;49.500;7.772;2023-09-30T12:07:06;19.80;99.90
13794;DHT22;31160;49.500;7.772;2023-09-30T12:09:36;19.80;99.90
13794;DHT22;31160;49.500;7.772;2023-09-30T12:12:08;19.80;99.90
13794;DHT22;31160;49.500;7.772;2023-09-30T12:14:39;19.90;99.90
13794;DHT22;31160;49.500;7.772;2023-09-30T12:17:06;20.10;99.90
13794;DHT22;31160;49.500;7.772;2023-09-30T12:19:38;20.10;99.90
13794;DHT22;31160;49.500;7.772;2023-09-30T12:22:05;20.10;99.90
13794;DHT22;31160;49.500;7.772;2023-09-30T12:24:33;19.90;99.90
13794;DHT22;31160;49.500;7.772;2023-09-30T12:27:00;19.80;99.90
13794;DHT22;31160;49.500;7.772;2023-09-30T12:29:26;19.70;99.90
13794;DHT22;31160;49.500;7.772;2023-09-30T12:31:53;19.60;99.90
13794;DHT22;31160;49.500;7.772;2023-09-30T12:34:22;19.60;99.90
13794;DHT22;31160;49.500;7.772;2023-09-30T12:36:54;19.60;99.90
13794;DHT22;31160;49.500;7.772;2023-09-30T12:39:23;19.70;99.90
13794;DHT22;31160;49.500;7.772;2023-09-30T12:41:53;19.70;99.90
13794;DHT22;31160;49.500;7.772;2023-09-30T12:44:20;19.90;99.90
13794;DHT22;31160;49.500;7.772;2023-09-30T12:46:46;20.20;99.90
13794;DHT22;31160;49.500;7.772;2023-09-30T12:49:14;20.60;99.30
13794;DHT22;31160;49.500;7.772;2023-09-30T12:51:41;20.70;99.30
13794;DHT22;31160;49.500;7.772;2023-09-30T12:54:08;21.00;98.10
13794;DHT22;31160;49.500;7.772;2023-09-30T12:56:36;21.10;98.00
13794;DHT22;31160;49.500;7.772;2023-09-30T12:59:02;21.20;97.50
13794;DHT22;31160;49.500;7.772;2023-09-30T13:01:30;21.20;97.00
13794;DHT22;31160;49.500;7.772;2023-09-30T13:04:01;21.10;97.20
13794;DHT22;31160;49.500;7.772;2023-09-30T13:06:28;21.00;96.70
13794;DHT22;31160;49.500;7.772;2023-09-30T13:08:56;21.20;96.60
13794;DHT22;31160;49.500;7.772;2023-09-30T13:11:24;21.20;95.20
13794;DHT22;31160;49.500;7.772;2023-09-30T13:13:50;21.30;95.40
13794;DHT22;31160;49.500;7.772;2023-09-30T13:16:17;21.20;95.90
13794;DHT22;31160;49.500;7.772;2023-09-30T13:18:44;21.20;95.80
13794;DHT22;31160;49.500;7.772;2023-09-30T13:21:11;21.10;96.30
13794;DHT22;31160;49.500;7.772;2023-09-30T13:23:39;21.20;96.10
13794;DHT22;31160;49.500;7.772;2023-09-30T13:26:05;21.10;96.30
13794;DHT22;31160;49.500;7.772;2023-09-30T13:28:32;21.20;96.20
13794;DHT22;31160;49.500;7.772;2023-09-30T13:30:59;21.30;96.00
13794;DHT22;31160;49.500;7.772;2023-09-30T13:33:26;21.20;95.60
13794;DHT22;31160;49.500;7.772;2023-09-30T13:35:53;21.20;95.60
13794;DHT22;31160;49.500;7.772;2023-09-30T13:38:22;21.30;95.40
13794;DHT22;31160;49.500;7.772;2023-09-30T13:40:49;21.40;95.20
13794;DHT22;31160;49.500;7.772;2023-09-30T13:43:15;21.30;94.90
13794;DHT22;31160;49.500;7.772;2023-09-30T13:45:42;21.00;95.40
13794;DHT22;31160;49.500;7.772;2023-09-30T13:48:09;21.10;95.90
13794;DHT22;31160;49.500;7.772;2023-09-30T13:50:36;21.30;95.40
13794;DHT22;31160;49.500;7.772;2023-09-30T13:53:03;21.20;95.70
13794;DHT22;31160;49.500;7.772;2023-09-30T13:55:30;21.40;95.70
13794;DHT22;31160;49.500;7.772;2023-09-30T13:57:56;21.20;96.00
13794;DHT22;31160;49.500;7.772;2023-09-30T14:00:23;21.20;96.30
13794;DHT22;31160;49.500;7.772;2023-09-30T14:02:50;21.20;96.20
13794;DHT22;31160;49.500;7.772;2023-09-30T14:05:18;21.20;96.30
13794;DHT22;31160;49.500;7.772;2023-09-30T14:07:45;21.30;97.20
13794;DHT22;31160;49.500;7.772;2023-09-30T14:10:12;21.00;96.90
13794;DHT22;31160;49.500;7.772;2023-09-30T14:12:40;21.10;96.60
13794;DHT22;31160;49.500;7.772;2023-09-30T14:15:07;21.10;96.60
13794;DHT22;31160;49.500;7.772;2023-09-30T14:17:34;21.10;96.70
13794;DHT22;31160;49.500;7.772;2023-09-30T14:20:05;21.30;96.40
13794;DHT22;31160;49.500;7.772;2023-09-30T14:22:33;21.20;97.70
13794;DHT22;31160;49.500;7.772;2023-09-30T14:25:00;21.30;95.90
13794;DHT22;31160;49.500;7.772;2023-09-30T14:27:27;21.40;96.30
13794;DHT22;31160;49.500;7.772;2023-09-30T14:29:54;21.50;96.00
13794;DHT22;31160;49.500;7.772;2023-09-30T14:32:21;21.40;96.00
13794;DHT22;31160;49.500;7.772;2023-09-30T14:34:48;21.40;96.10
13794;DHT22;31160;49.500;7.772;2023-09-30T14:37:15;21.60;95.80
13794;DHT22;31160;49.500;7.772;2023-09-30T14:39:43;21.80;95.80
13794;DHT22;31160;49.500;7.772;2023-09-30T14:42:10;21.80;95.40
13794;DHT22;31160;49.500;7.772;2023-09-30T14:44:37;21.80;95.20
13794;DHT22;31160;49.500;7.772;2023-09-30T14:47:04;21.90;95.00
13794;DHT22;31160;49.500;7.772;2023-09-30T14:49:31;21.70;94.90
13794;DHT22;31160;49.500;7.772;2023-09-30T14:51:58;21.80;94.80
13794;DHT22;31160;49.500;7.772;2023-09-30T14:54:25;21.50;94.50
13794;DHT22;31160;49.500;7.772;2023-09-30T14:56:52;21.00;94.90
13794;DHT22;31160;49.500;7.772;2023-09-30T14:59:19;21.30;95.10
13794;DHT22;31160;49.500;7.772;2023-09-30T15:01:46;21.30;95.30
13794;DHT22;31160;49.500;7.772;2023-09-30T15:04:13;21.50;95.10
13794;DHT22;31160;49.500;7.772;2023-09-30T15:06:42;21.60;94.60
13794;DHT22;31160;49.500;7.772;2023-09-30T15:09:09;21.70;94.40
13794;DHT22;31160;49.500;7.772;2023-09-30T15:11:39;21.70;94.30
13794;DHT22;31160;49.500;7.772;2023-09-30T15:14:06;21.60;94.20
13794;DHT22;31160;49.500;7.772;2023-09-30T15:16:33;21.70;93.60
13794;DHT22;31160;49.500;7.772;2023-09-30T15:19:01;21.60;94.10
13794;DHT22;31160;49.500;7.772;2023-09-30T15:21:28;21.60;94.60
13794;DHT22;31160;49.500;7.772;2023-09-30T15:23:55;21.60;94.90
13794;DHT22;31160;49.500;7.772;2023-09-30T15:26:22;21.30;94.40
13794;DHT22;31160;49.500;7.772;2023-09-30T15:28:48;21.10;94.70
13794;DHT22;31160;49.500;7.772;2023-09-30T15:31:15;21.20;95.10
13794;DHT22;31160;49.500;7.772;2023-09-30T15:33:42;21.10;95.50
13794;DHT22;31160;49.500;7.772;2023-09-30T15:36:11;21.00;95.40
13794;DHT22;31160;49.500;7.772;2023-09-30T15:38:38;21.00;95.10
13794;DHT22;31160;49.500;7.772;2023-09-30T15:41:05;21.00;94.90
13794;DHT22;31160;49.500;7.772;2023-09-30T15:43:32;21.00;95.10
13794;DHT22;31160;49.500;7.772;2023-09-30T15:45:59;20.70;95.60
13794;DHT22;31160;49.500;7.772;2023-09-30T15:48:27;20.80;96.10
13794;DHT22;31160;49.500;7.772;2023-09-30T15:50:54;20.80;96.40
13794;DHT22;31160;49.500;7.772;2023-09-30T15:53:21;20.80;96.70
13794;DHT22;31160;49.500;7.772;2023-09-30T15:55:48;20.80;96.70
13794;DHT22;31160;49.500;7.772;2023-09-30T15:58:14;20.80;96.80